Menu Close Menu
Station Historical Data
Daily Summary for June 17, 2017 Units:  Metric    English   Both
« Previous Day
Next Day »
Daily Weekly Monthly Yearly Custom
  High: Low: Average:
Temperature: 31.1 °C 20.4 °C 24.9 °C
Dew Point: 21.9 °C 18.8 °C 20 °C
Humidity: 93% 50% 76%
Wind Speed: 1.6km/h 0km/h 0km/h
Wind Gust: 3.2km/h - -
Wind- - SE
Pressure: 1012.4 hPa 1009.4 hPa -
Precipitation: 0 mm    
Historical Graphs
 
 
Tabular Data for June 17, 2017
Time Temperature Dew Point Pressure Wind Wind Speed Wind Gust Humidity Rainfall Rate (Hourly) solar Conditions
00:00 21.8 °C 19.8 °C 1011.4 hPa Calm     88% 0 mm WeatherDisplay:10.37 W/m2 CLR
00:10 21.8 °C 19.8 °C 1011.4 hPa Calm     88% 0 mm WeatherDisplay:10.37 W/m2 CLR
00:20 21.9 °C 19.8 °C 1011.4 hPa Calm     88% 0 mm WeatherDisplay:10.37 W/m2 CLR
00:30 21.9 °C 19.9 °C 1011.4 hPa Calm     88% 0 mm WeatherDisplay:10.37 W/m2 CLR
00:40 21.9 °C 19.7 °C 1011.4 hPa Calm     87% 0 mm WeatherDisplay:10.37 W/m2 CLR
00:50 21.9 °C 19.7 °C 1011.4 hPa Calm     87% 0 mm WeatherDisplay:10.37 W/m2 CLR
01:00 21.8 °C 19.6 °C 1011.1 hPa Calm     87% 0 mm WeatherDisplay:10.37 W/m2 CLR
01:10 21.7 °C 19.6 °C 1011.1 hPa Calm     88% 0 mm WeatherDisplay:10.37 W/m2 CLR
01:20 21.5 °C 19.4 °C 1011.1 hPa Calm     88% 0 mm WeatherDisplay:10.37 W/m2 CLR
01:40 21.4 °C 19.5 °C 1010.7 hPa Calm     89% 0 mm WeatherDisplay:10.37 W/m2 CLR
01:50 20.9 °C 18.8 °C 1010.7 hPa Calm     88% 0 mm WeatherDisplay:10.37 W/m2 CLR
02:00 20.9 °C 18.8 °C 1010.7 hPa Calm     88% 0 mm WeatherDisplay:10.37 W/m2 CLR
02:10 20.9 °C 18.8 °C 1010.7 hPa Calm     88% 0 mm WeatherDisplay:10.37 W/m2 CLR
02:20 20.9 °C 18.8 °C 1010.7 hPa Calm     88% 0 mm WeatherDisplay:10.37 W/m2 CLR
02:30 20.9 °C 18.8 °C 1010.7 hPa Calm     88% 0 mm WeatherDisplay:10.37 W/m2 CLR
02:40 20.9 °C 18.8 °C 1010.7 hPa Calm     88% 0 mm WeatherDisplay:10.37 W/m2 CLR
02:50 20.9 °C 18.8 °C 1010.7 hPa Calm     88% 0 mm WeatherDisplay:10.37 W/m2 CLR
03:00 20.9 °C 18.8 °C 1010.7 hPa Calm     88% 0 mm WeatherDisplay:10.37 W/m2 CLR
03:10 20.9 °C 18.8 °C 1010.7 hPa Calm     88% 0 mm WeatherDisplay:10.37 W/m2 CLR
03:20 20.9 °C 18.8 °C 1010.7 hPa Calm     88% 0 mm WeatherDisplay:10.37 W/m2 CLR
03:30 20.9 °C 18.8 °C 1010.4 hPa Calm     88% 0 mm WeatherDisplay:10.37 W/m2 CLR
03:40 20.9 °C 18.8 °C 1010.4 hPa Calm     88% 0 mm WeatherDisplay:10.37 W/m2 CLR
03:50 20.9 °C 18.8 °C 1010.4 hPa Calm     88% 0 mm WeatherDisplay:10.37 W/m2 CLR
04:00 20.9 °C 18.8 °C 1010.4 hPa Calm     88% 0 mm WeatherDisplay:10.37 W/m2 CLR
04:10 20.9 °C 18.8 °C 1010 hPa Calm     88% 0 mm WeatherDisplay:10.37 W/m2 CLR
04:20 20.9 °C 18.8 °C 1010.4 hPa Calm     88% 0 mm WeatherDisplay:10.37 W/m2 CLR
04:30 20.9 °C 18.8 °C 1010.4 hPa Calm     88% 0 mm WeatherDisplay:10.37 W/m2 CLR
04:40 20.9 °C 18.8 °C 1010.4 hPa Calm     88% 0 mm WeatherDisplay:10.37 W/m2 CLR
04:50 20.9 °C 18.8 °C 1010.4 hPa Calm     88% 0 mm WeatherDisplay:10.37 W/m2 CLR
05:00 20.9 °C 18.8 °C 1010.4 hPa Calm     88% 0 mm WeatherDisplay:10.37 W/m2 CLR
05:10 20.9 °C 18.8 °C 1010.4 hPa Calm     88% 0 mm WeatherDisplay:10.37 W/m2 CLR
05:20 20.9 °C 18.8 °C 1010.4 hPa Calm     88% 0 mm WeatherDisplay:10.37 W/m2 CLR
05:30 20.9 °C 18.8 °C 1010.4 hPa Calm     88% 0 mm WeatherDisplay:10.37 W/m2 CLR
05:40 20.9 °C 18.8 °C 1010.7 hPa Calm     88% 0 mm WeatherDisplay:10.37 W/m2 CLR
05:50 20.9 °C 18.8 °C 1010.7 hPa Calm     88% 0 mm WeatherDisplay:10.37 W/m2 CLR
06:00 20.9 °C 18.8 °C 1011.1 hPa Calm     88% 0 mm WeatherDisplay:10.37 W/m2 CLR
06:10 20.9 °C 18.8 °C 1011.1 hPa Calm     88% 0 mm WeatherDisplay:10.37 W/m2 CLR
06:20 20.9 °C 18.8 °C 1011.1 hPa Calm     88% 0 mm WeatherDisplay:10.37 W/m2 CLR
06:30 20.9 °C 18.8 °C 1011.4 hPa Calm     88% 0 mm WeatherDisplay:10.37 W/m2 CLR
06:40 20.9 °C 18.8 °C 1011.4 hPa Calm     88% 0 mm WeatherDisplay:10.37 W/m2 CLR
06:50 20.9 °C 18.8 °C 1011.7 hPa Calm     88% 0 mm WeatherDisplay:10.37 W/m2 CLR
07:00 20.9 °C 18.8 °C 1011.7 hPa Calm     88% 0 mm WeatherDisplay:10.37 W/m2 CLR
07:10 20.9 °C 18.8 °C 1011.7 hPa Calm     88% 0 mm WeatherDisplay:10.37 W/m2 CLR
07:20 20.9 °C 18.8 °C 1011.7 hPa Calm     88% 0 mm WeatherDisplay:10.37 W/m2 CLR
07:30 20.9 °C 18.8 °C 1012.1 hPa Calm     88% 0 mm WeatherDisplay:10.37 W/m2 CLR
07:40 20.9 °C 18.8 °C 1012.1 hPa Calm     88% 0 mm WeatherDisplay:10.37 W/m2 CLR
07:50 20.4 °C 19.2 °C 1012.1 hPa Calm     93% 0 mm WeatherDisplay:10.37 W/m2 CLR
08:00 20.7 °C 19.5 °C 1012.4 hPa Calm     93% 0 mm WeatherDisplay:10.37 W/m2 CLR
08:10 20.9 °C 19.6 °C 1012.4 hPa Calm     92% 0 mm WeatherDisplay:10.37 W/m2 CLR
08:20 21.3 °C 19.9 °C 1012.1 hPa Calm     92% 0 mm WeatherDisplay:10.37 W/m2 CLR
08:30 21.7 °C 20.2 °C 1012.1 hPa Calm     91% 0 mm WeatherDisplay:10.37 W/m2 CLR
08:40 22.2 °C 20.1 °C 1012.1 hPa Calm     88% 0 mm WeatherDisplay:10.37 W/m2 CLR
08:50 22.7 °C 20.2 °C 1011.7 hPa Calm     86% 0 mm WeatherDisplay:10.37 W/m2 CLR
09:00 23.1 °C 20.2 °C 1012.1 hPa Calm     84% 0 mm WeatherDisplay:10.37 W/m2 CLR
09:10 23.4 °C 20.7 °C 1012.1 hPa Calm     85% 0 mm WeatherDisplay:10.37 W/m2 CLR
09:20 23.8 °C 20.7 °C 1012.4 hPa Calm     83% 0 mm WeatherDisplay:10.37 W/m2 CLR
09:30 24.1 °C 20.8 °C 1012.4 hPa Calm   1.6 km/h 82% 0 mm WeatherDisplay:10.37 W/m2 CLR
09:40 24.3 °C 21 °C 1012.4 hPa Calm   1.6 km/h 82% 0 mm WeatherDisplay:10.37 W/m2 CLR
09:50 24.6 °C 21.3 °C 1012.4 hPa Calm     82% 0 mm WeatherDisplay:10.37 W/m2 CLR
10:00 25 °C 21.5 °C 1012.1 hPa Calm   1.6 km/h 81% 0 mm WeatherDisplay:10.37 W/m2 CLR
10:10 25.8 °C 21.7 °C 1012.1 hPa Calm   1.6 km/h 78% 0 mm WeatherDisplay:10.37 W/m2 CLR
10:20 26.7 °C 21.9 °C 1012.1 hPa Calm   1.6 km/h 75% 0 mm WeatherDisplay:10.37 W/m2 CLR
10:30 27.2 °C 21.2 °C 1012.1 hPa NW 1.6 km/h 1.6 km/h 70% 0 mm WeatherDisplay:10.37 W/m2 CLR
10:40 26.7 °C 21.7 °C 1012.1 hPa Calm     74% 0 mm WeatherDisplay:10.37 W/m2 CLR
10:50 26.9 °C 21.9 °C 1011.7 hPa Calm   1.6 km/h 74% 0 mm WeatherDisplay:10.37 W/m2 CLR
11:00 27.3 °C 21.4 °C 1011.7 hPa Calm   1.6 km/h 70% 0 mm WeatherDisplay:10.37 W/m2 CLR
11:10 27.7 °C 21.4 °C 1012.1 hPa Calm   1.6 km/h 69% 0 mm WeatherDisplay:10.37 W/m2 CLR
11:20 27.8 °C 21.1 °C 1012.1 hPa Calm   1.6 km/h 67% 0 mm WeatherDisplay:10.37 W/m2 CLR
11:30 27.7 °C 20.9 °C 1012.1 hPa Calm     67% 0 mm WeatherDisplay:10.37 W/m2 CLR
11:40 27.9 °C 21.4 °C 1012.1 hPa Calm   1.6 km/h 68% 0 mm WeatherDisplay:10.37 W/m2 CLR
11:50 28.2 °C 21.2 °C 1012.1 hPa Calm   1.6 km/h 66% 0 mm WeatherDisplay:10.37 W/m2 CLR
12:00 28 °C 20.6 °C 1012.1 hPa Calm   3.2 km/h 64% 0 mm WeatherDisplay:10.37 W/m2 CLR
12:10 28.3 °C 21.1 °C 1012.1 hPa Calm   3.2 km/h 65% 0 mm WeatherDisplay:10.37 W/m2 CLR
12:30 28.5 °C 20 °C 1011.7 hPa Calm   3.2 km/h 60% 0 mm WeatherDisplay:10.37 W/m2 CLR
12:40 28.5 °C 20.5 °C 1011.7 hPa Calm   1.6 km/h 62% 0 mm WeatherDisplay:10.37 W/m2 CLR
12:50 28.9 °C 20.6 °C 1011.7 hPa Calm   1.6 km/h 61% 0 mm WeatherDisplay:10.37 W/m2 CLR
13:00 29.9 °C 20.8 °C 1011.4 hPa Calm   1.6 km/h 58% 0 mm WeatherDisplay:10.37 W/m2 CLR
13:10 29.9 °C 19.9 °C 1011.4 hPa NNE 1.6 km/h 1.6 km/h 55% 0 mm WeatherDisplay:10.37 W/m2 CLR
13:20 30.6 °C 21.1 °C 1011.1 hPa Calm   1.6 km/h 57% 0 mm WeatherDisplay:10.37 W/m2 CLR
13:30 31.1 °C 20.7 °C 1011.1 hPa Calm   1.6 km/h 54% 0 mm WeatherDisplay:10.37 W/m2 CLR
13:40 31.1 °C 20.9 °C 1010.7 hPa Calm   1.6 km/h 55% 0 mm WeatherDisplay:10.37 W/m2 CLR
13:50 31.1 °C 21.6 °C 1010.7 hPa Calm   1.6 km/h 57% 0 mm WeatherDisplay:10.37 W/m2 CLR
14:00 30.7 °C 20.3 °C 1010.7 hPa Calm   1.6 km/h 54% 0 mm WeatherDisplay:10.37 W/m2 CLR
14:10 30.9 °C 20.2 °C 1010.7 hPa Calm   3.2 km/h 53% 0 mm WeatherDisplay:10.37 W/m2 CLR
14:20 30.6 °C 20.8 °C 1010.7 hPa Calm   1.6 km/h 56% 0 mm WeatherDisplay:10.37 W/m2 CLR
14:30 30.6 °C 21.1 °C 1010.4 hPa Calm   3.2 km/h 57% 0 mm WeatherDisplay:10.37 W/m2 CLR
14:40 30.1 °C 19.8 °C 1010.4 hPa Calm   3.2 km/h 54% 0 mm WeatherDisplay:10.37 W/m2 CLR
14:50 30.1 °C 20.1 °C 1010.4 hPa Calm   1.6 km/h 55% 0 mm WeatherDisplay:10.37 W/m2 CLR
15:00 30.3 °C 20 °C 1010.4 hPa Calm   1.6 km/h 54% 0 mm WeatherDisplay:10.37 W/m2 CLR
15:10 30.4 °C 19.2 °C 1010 hPa Calm   1.6 km/h 51% 0 mm WeatherDisplay:10.37 W/m2 CLR
15:20 30.1 °C 19.2 °C 1010 hPa Calm     52% 0 mm WeatherDisplay:10.37 W/m2 CLR
15:30 30.3 °C 20.8 °C 1009.7 hPa Calm     57% 0 mm WeatherDisplay:10.37 W/m2 CLR
15:40 30.6 °C 18.9 °C 1009.7 hPa ENE 1.6 km/h 3.2 km/h 50% 0 mm WeatherDisplay:10.37 W/m2 CLR
15:50 30.4 °C 18.8 °C 1009.7 hPa Calm   3.2 km/h 50% 0 mm WeatherDisplay:10.37 W/m2 CLR
16:00 30.4 °C 19.2 °C 1009.7 hPa Calm   1.6 km/h 51% 0 mm WeatherDisplay:10.37 W/m2 CLR
16:10 30.4 °C 19.1 °C 1009.7 hPa Calm   1.6 km/h 51% 0 mm WeatherDisplay:10.37 W/m2 CLR
16:20 30.4 °C 19.5 °C 1009.7 hPa Calm   1.6 km/h 52% 0 mm WeatherDisplay:10.37 W/m2 CLR
16:30 30.4 °C 19.5 °C 1009.7 hPa Calm   1.6 km/h 52% 0 mm WeatherDisplay:10.37 W/m2 CLR
16:40 30.5 °C 18.9 °C 1009.7 hPa Calm   1.6 km/h 50% 0 mm WeatherDisplay:10.37 W/m2 CLR
16:50 29.8 °C 19.8 °C 1009.7 hPa Calm   1.6 km/h 55% 0 mm WeatherDisplay:10.37 W/m2 CLR
17:00 29.2 °C 20.3 °C 1009.4 hPa Calm   1.6 km/h 59% 0 mm WeatherDisplay:10.37 W/m2 CLR
17:10 28.6 °C 20.6 °C 1009.4 hPa Calm   1.6 km/h 62% 0 mm WeatherDisplay:10.37 W/m2 CLR
17:20 28.3 °C 20.6 °C 1009.4 hPa Calm     63% 0 mm WeatherDisplay:10.37 W/m2 CLR
17:30 28.6 °C 21.1 °C 1009.4 hPa Calm     64% 0 mm WeatherDisplay:10.37 W/m2 CLR
17:40 28.2 °C 20.2 °C 1009.4 hPa Calm   1.6 km/h 62% 0 mm WeatherDisplay:10.37 W/m2 CLR
17:50 27.9 °C 20.4 °C 1009.4 hPa Calm     64% 0 mm WeatherDisplay:10.37 W/m2 CLR
18:00 27.7 °C 21.2 °C 1009.7 hPa Calm   1.6 km/h 68% 0 mm WeatherDisplay:10.37 W/m2 CLR
18:10 27.6 °C 20.4 °C 1009.7 hPa Calm   3.2 km/h 65% 0 mm WeatherDisplay:10.37 W/m2 CLR
18:20 27.5 °C 20.3 °C 1009.4 hPa Calm   1.6 km/h 65% 0 mm WeatherDisplay:10.37 W/m2 CLR
18:30 27.5 °C 20.6 °C 1010 hPa Calm   3.2 km/h 66% 0 mm WeatherDisplay:10.37 W/m2 CLR
18:40 27.3 °C 20.1 °C 1010 hPa Calm   3.2 km/h 65% 0 mm WeatherDisplay:10.37 W/m2 CLR
18:50 27.1 °C 20 °C 1009.7 hPa Calm   1.6 km/h 65% 0 mm WeatherDisplay:10.37 W/m2 CLR
19:00 27 °C 20.4 °C 1010 hPa Calm   1.6 km/h 67% 0 mm WeatherDisplay:10.37 W/m2 CLR
19:10 26.8 °C 20.4 °C 1010 hPa Calm   1.6 km/h 68% 0 mm WeatherDisplay:10.37 W/m2 CLR
19:20 26.6 °C 19.9 °C 1010 hPa Calm   1.6 km/h 67% 0 mm WeatherDisplay:10.37 W/m2 CLR
19:30 26.4 °C 20.5 °C 1010 hPa Calm     70% 0 mm WeatherDisplay:10.37 W/m2 CLR
19:40 26.3 °C 20.4 °C 1010 hPa Calm     70% 0 mm WeatherDisplay:10.37 W/m2 CLR
20:00 26.2 °C 20.7 °C 1010.4 hPa Calm     72% 0 mm WeatherDisplay:10.37 W/m2 CLR
20:10 26.1 °C 20.8 °C 1011.1 hPa Calm   1.6 km/h 73% 0 mm WeatherDisplay:10.37 W/m2 CLR
20:20 25.9 °C 20.9 °C 1011.1 hPa Calm     74% 0 mm WeatherDisplay:10.37 W/m2 CLR
20:30 25.7 °C 20.5 °C 1011.1 hPa Calm     73% 0 mm WeatherDisplay:10.37 W/m2 CLR
20:40 25.6 °C 20.4 °C 1011.1 hPa Calm     73% 0 mm WeatherDisplay:10.37 W/m2 CLR
20:50 25.4 °C 20.4 °C 1011.1 hPa Calm     74% 0 mm WeatherDisplay:10.37 W/m2 CLR
21:00 25.2 °C 20.5 °C 1011.1 hPa Calm     75% 0 mm WeatherDisplay:10.37 W/m2 CLR
21:10 25.1 °C 20.5 °C 1011.1 hPa Calm     76% 0 mm WeatherDisplay:10.37 W/m2 CLR
21:20 24.9 °C 20.6 °C 1011.1 hPa Calm     77% 0 mm WeatherDisplay:10.37 W/m2 CLR
21:30 24.8 °C 20.4 °C 1011.1 hPa Calm     77% 0 mm WeatherDisplay:10.37 W/m2 CLR
21:40 24.6 °C 20.5 °C 1011.4 hPa Calm     78% 0 mm WeatherDisplay:10.37 W/m2 CLR
21:50 24.5 °C 20.6 °C 1011.4 hPa Calm     79% 0 mm WeatherDisplay:10.37 W/m2 CLR
22:00 24.3 °C 20.7 °C 1011.4 hPa Calm     80% 0 mm WeatherDisplay:10.37 W/m2 CLR
22:10 24.2 °C 20.6 °C 1011.4 hPa Calm     80% 0 mm WeatherDisplay:10.37 W/m2 CLR
22:20 24 °C 20.5 °C 1011.4 hPa Calm     81% 0 mm WeatherDisplay:10.37 W/m2 CLR
22:30 23.8 °C 20.8 °C 1011.7 hPa Calm     83% 0 mm WeatherDisplay:10.37 W/m2 CLR
22:40 23.8 °C 20.7 °C 1011.7 hPa Calm     83% 0 mm WeatherDisplay:10.37 W/m2 CLR
22:50 23.8 °C 20.7 °C 1011.7 hPa Calm     83% 0 mm WeatherDisplay:10.37 W/m2 CLR
23:00 23.7 °C 20.6 °C 1011.7 hPa Calm     83% 0 mm WeatherDisplay:10.37 W/m2 CLR
23:10 23.6 °C 20.7 °C 1011.7 hPa Calm     84% 0 mm WeatherDisplay:10.37 W/m2 CLR
23:20 23.4 °C 20.8 °C 1011.7 hPa Calm     85% 0 mm WeatherDisplay:10.37 W/m2 CLR
23:30 23.3 °C 20.6 °C 1011.7 hPa Calm     85% 0 mm WeatherDisplay:10.37 W/m2 CLR
23:40 23.2 °C 20.7 °C 1011.7 hPa Calm     86% 0 mm WeatherDisplay:10.37 W/m2 CLR
23:50 23.1 °C 20.6 °C 1011.7 hPa Calm     86% 0 mm WeatherDisplay:10.37 W/m2 CLR
Piedmont Bend
Compliments of Weather Underground - 4 mb